Point Judith, Rhode Island
Current Conditions -  °F | °C
As of 2:53 AM on Thursday 23 Oct 2014 (Local Time) from KUUU Reporting Station
Overcast Overcast  
Wind Chill: 54°   Ceiling: 900
Heat Index: 54°   Visibility: 10mi
Dew Point: 50°   Wind: 24mph
Humidity: 86%   Direction: 10°N
Pressure: 29.61"   Gusts: 35mph
Location:  41.4075°N, 71.4775°W
Report Text: KUUU 230653Z AUTO 01021G30KT 10SM OVC009 12/10 A2961 RMK AO2 PK WND 02030/0627 SLP025 T01220100
Loading
Personal Weather Stations






























Interactive Weather Map
Tropical Storm Tracking
New forecast layout! Learn more

10-Day Weather Forecast

Advertisements
Track Severe Weather on mobile